Time;durP1;ratioP1;P1;durP2;ratioP2;P2;SDS_P1;SDS_P2;PMS_P1;PMS_P2;Temp;Humidity;BMP_temperature;BMP_pressure;BME280_temperature;BME280_humidity;BME280_pressure;Samples;Min_cycle;Max_cycle;Signal;HPM_P1;HPM_P2
2022/04/21 00:01:03;;;;;;;30.60;20.08;;;;;;;8.09;47.18;99543.13;4436309;32;34616;-80
2022/04/21 00:03:41;;;;;;;28.27;18.33;;;;;;;8.08;46.85;99540.59;4416425;32;33878;-80
2022/04/21 00:06:17;;;;;;;24.40;16.85;;;;;;;8.18;46.70;99538.38;4408862;32;32363;-80
2022/04/21 00:08:56;;;;;;;31.67;18.48;;;;;;;8.13;46.98;99540.84;4421743;32;34397;-80
2022/04/21 00:11:44;;;;;;;26.75;17.08;;;;;;;8.08;46.69;99540.59;4430012;32;33421;-79
2022/04/21 00:14:18;;;;;;;20.15;12.27;;;;;;;8.00;46.83;99543.44;4415955;32;32343;-80
2022/04/21 00:16:59;;;;;;;25.45;14.48;;;;;;;7.91;47.20;99534.53;4423154;32;33752;-80
2022/04/21 00:19:39;;;;;;;21.17;14.30;;;;;;;7.93;47.33;99536.03;4425707;32;35250;-80
2022/04/21 00:25:14;;;;;;;23.38;16.37;;;;;;;8.02;47.03;99536.75;4427909;32;33393;-80
2022/04/21 00:27:52;;;;;;;35.40;20.67;;;;;;;7.82;47.48;99536.56;4425474;32;33295;-80
2022/04/21 00:30:29;;;;;;;24.42;15.23;;;;;;;7.83;47.44;99537.41;4425173;32;33761;-80
2022/04/21 00:33:16;;;;;;;19.02;12.60;;;;;;;7.61;47.92;99539.28;4425555;32;32599;-79
2022/04/21 00:35:52;;;;;;;52.83;36.97;;;;;;;7.63;47.90;99525.44;4426367;32;34210;-80
2022/04/21 00:38:27;;;;;;;97.25;81.65;;;;;;;7.73;47.89;99525.97;4425712;32;33959;-80
2022/04/21 00:41:10;;;;;;;68.90;56.10;;;;;;;7.84;47.63;99522.69;4425408;32;33130;-80
2022/04/21 00:43:54;;;;;;;39.55;29.25;;;;;;;7.67;47.92;99533.06;4412884;32;32495;-80
2022/04/21 00:46:34;;;;;;;25.17;16.02;;;;;;;7.68;47.87;99522.97;4412772;32;31655;-80
2022/04/21 00:49:18;;;;;;;36.17;20.15;;;;;;;7.58;48.35;99529.59;4426101;32;34587;-80
2022/04/21 00:51:56;;;;;;;27.87;17.40;;;;;;;7.70;48.15;99526.38;4425215;32;32931;-80
2022/04/21 00:54:46;;;;;;;27.87;17.45;;;;;;;7.70;48.03;99526.38;4413453;32;32353;-80
2022/04/21 00:57:22;;;;;;;24.45;16.10;;;;;;;7.67;47.83;99518.56;4426351;32;33276;-80
2022/04/21 00:59:58;;;;;;;25.50;16.08;;;;;;;7.70;47.98;99523.63;4425363;32;33181;-80
2022/04/21 01:02:46;;;;;;;25.05;15.18;;;;;;;7.66;48.17;99517.72;4425251;32;34794;-80
2022/04/21 01:05:25;;;;;;;21.30;13.20;;;;;;;7.63;47.94;99520.00;4425401;32;33892;-80
2022/04/21 01:08:06;;;;;;;20.25;13.38;;;;;;;7.55;48.16;99521.81;4439193;32;34297;-80
2022/04/21 01:10:47;;;;;;;22.73;13.15;;;;;;;7.67;48.03;99529.47;4413576;32;32353;-80
2022/04/21 01:13:24;;;;;;;22.85;12.77;;;;;;;7.55;48.19;99520.94;4425303;32;34601;-80
2022/04/21 01:16:06;;;;;;;20.42;14.15;;;;;;;7.61;48.30;99528.37;4425198;32;34080;-80
2022/04/21 01:18:51;;;;;;;22.58;13.80;;;;;;;7.59;48.36;99523.09;4426506;32;34074;-80
2022/04/21 01:21:35;;;;;;;27.33;16.37;;;;;;;7.46;48.69;99524.84;4425710;32;34430;-80
2022/04/21 01:24:20;;;;;;;26.92;16.10;;;;;;;7.47;48.60;99519.19;4425506;32;35434;-80
2022/04/21 01:27:10;;;;;;;22.75;14.15;;;;;;;7.34;48.91;99513.56;4411839;32;32536;-80
2022/04/21 01:29:56;;;;;;;23.00;13.45;;;;;;;7.25;49.26;99521.03;4413124;32;32165;-80
2022/04/21 01:32:43;;;;;;;24.02;12.77;;;;;;;6.93;50.04;99519.59;4425244;32;34727;-80
2022/04/21 01:35:24;;;;;;;20.30;11.93;;;;;;;7.04;49.71;99531.06;4425177;32;35354;-80
2022/04/21 01:41:16;;;;;;;18.65;12.05;;;;;;;7.11;49.73;99521.09;4424865;32;32723;-80
2022/04/21 01:44:03;;;;;;;17.45;11.02;;;;;;;6.89;50.27;99526.47;4413773;32;33298;-80
2022/04/21 01:46:48;;;;;;;17.48;10.70;;;;;;;6.97;49.94;99511.03;4414202;32;34692;-80
2022/04/21 01:49:21;;;;;;;26.62;16.15;;;;;;;6.90;50.31;99519.13;4425268;32;33841;-80
2022/04/21 01:52:00;;;;;;;32.55;18.50;;;;;;;7.00;50.04;99516.97;4424904;32;33853;-80
2022/04/21 01:54:35;;;;;;;32.55;19.12;;;;;;;7.14;49.65;99509.78;4438648;32;33638;-80
2022/04/21 01:57:11;;;;;;;28.30;18.47;;;;;;;7.21;49.56;99499.78;4424738;32;35392;-80
2022/04/21 01:59:49;;;;;;;29.80;18.77;;;;;;;7.07;49.83;99506.13;4412205;32;33218;-80
2022/04/21 02:02:40;;;;;;;28.62;17.48;;;;;;;7.00;50.04;99513.37;4425304;32;33639;-79
2022/04/21 02:05:11;;;;;;;31.70;22.07;;;;;;;7.03;49.86;99502.09;4437706;32;33339;-79
2022/04/21 02:07:56;;;;;;;42.60;28.70;;;;;;;7.08;50.03;99507.81;4425227;32;35385;-80
2022/04/21 02:10:34;;;;;;;40.22;28.25;;;;;;;7.00;49.92;99503.31;4412366;32;34103;-80
2022/04/21 02:13:13;;;;;;;44.30;28.58;;;;;;;7.06;49.80;99509.91;4425018;32;33138;-80
2022/04/21 02:15:55;;;;;;;41.05;25.48;;;;;;;7.10;49.84;99492.94;4425564;32;34343;-80
2022/04/21 02:18:29;;;;;;;40.45;27.08;;;;;;;7.00;49.89;99497.03;4424216;32;32985;-80
2022/04/21 02:21:18;;;;;;;37.88;24.95;;;;;;;6.93;50.03;99492.31;4424566;32;34676;-79
2022/04/21 02:24:07;;;;;;;34.63;22.50;;;;;;;7.05;49.74;99486.38;4426305;32;34219;-80
2022/04/21 02:26:46;;;;;;;29.10;18.15;;;;;;;7.05;49.72;99484.50;4437098;32;33625;-79
2022/04/21 02:29:16;;;;;;;30.92;20.45;;;;;;;6.90;49.97;99491.84;4424633;32;33990;-80
2022/04/21 02:32:09;;;;;;;29.23;18.12;;;;;;;6.76;50.47;99495.44;4424090;32;32537;-80
2022/04/21 02:34:47;;;;;;;29.27;17.80;;;;;;;6.78;50.28;99496.09;4425827;32;33460;-80
2022/04/21 02:37:23;;;;;;;27.33;16.98;;;;;;;6.90;50.00;99491.84;4436894;32;33670;-80
2022/04/21 02:40:06;;;;;;;24.30;15.48;;;;;;;6.86;50.11;99496.84;4426002;32;33950;-80
2022/04/21 02:42:45;;;;;;;25.17;16.05;;;;;;;6.83;50.16;99489.03;4427317;32;33925;-80
2022/04/21 02:45:31;;;;;;;24.40;14.05;;;;;;;6.88;50.03;99494.78;4426726;32;31880;-80
2022/04/21 02:48:24;;;;;;;22.55;14.10;;;;;;;6.85;50.06;99486.97;4428088;32;34074;-80
2022/04/21 02:50:55;;;;;;;23.30;15.23;;;;;;;6.89;49.98;99485.56;4413460;32;32817;-80
2022/04/21 02:59:49;;;;;;;20.35;12.48;;;;;;;6.85;50.02;99489.69;4408374;32;33537;-80
2022/04/21 03:02:29;;;;;;;19.42;11.82;;;;;;;6.70;50.36;99488.00;4425676;32;33062;-80
2022/04/21 03:05:11;;;;;;;19.62;12.13;;;;;;;6.47;51.19;99486.25;4426653;32;34561;-80
2022/04/21 03:07:50;;;;;;;17.92;12.50;;;;;;;6.61;50.89;99484.53;4426635;32;33064;-80
2022/04/21 03:10:32;;;;;;;16.45;11.68;;;;;;;6.28;51.84;99493.09;4427460;32;31764;-80
2022/04/21 03:13:10;;;;;;;20.92;12.52;;;;;;;6.40;51.77;99492.66;4428583;32;34555;-80
2022/04/21 03:15:48;;;;;;;19.70;12.05;;;;;;;6.40;51.87;99484.47;4431656;32;34311;-80
2022/04/21 03:18:30;;;;;;;20.48;12.55;;;;;;;6.45;51.67;99487.47;4432985;32;33856;-79
2022/04/21 03:26:53;;;;;;;19.60;11.52;;;;;;;6.68;50.86;99492.81;4430951;32;34069;-80
2022/04/21 03:29:26;;;;;;;20.98;12.02;;;;;;;6.60;50.97;99488.28;4441704;32;33183;-80
2022/04/21 03:31:59;;;;;;;20.00;12.02;;;;;;;6.48;51.31;99492.56;4438490;32;32984;-80
2022/04/21 03:34:38;;;;;;;19.17;12.25;;;;;;;6.61;50.78;99493.56;4426294;32;33852;-80
2022/04/21 03:37:18;;;;;;;17.50;11.88;;;;;;;6.43;51.52;99493.13;4413607;32;34569;-80
2022/04/21 03:39:51;;;;;;;19.42;11.73;;;;;;;6.62;50.93;99488.94;4426317;32;33604;-80
2022/04/21 03:42:24;;;;;;;20.77;11.83;;;;;;;6.68;50.84;99493.66;4413142;32;32275;-81
2022/04/21 03:44:53;;;;;;;19.05;11.35;;;;;;;6.50;51.07;99488.56;4426152;32;35155;-80
2022/04/21 03:47:24;;;;;;;19.60;12.63;;;;;;;6.47;51.03;99497.16;4425964;32;34960;-80
2022/04/21 03:50:01;;;;;;;19.42;12.23;;;;;;;6.33;51.53;99497.16;4425935;32;33307;-80
2022/04/21 03:52:32;;;;;;;17.17;12.05;;;;;;;6.48;51.30;99487.94;4425971;32;33458;-80
2022/04/21 03:55:00;;;;;;;21.20;12.48;;;;;;;6.55;51.20;99486.12;4413012;32;34309;-80
2022/04/21 03:57:30;;;;;;;18.67;12.35;;;;;;;6.48;51.30;99482.50;4425410;32;32152;-77
2022/04/21 04:00:01;;;;;;;18.17;11.30;;;;;;;6.42;51.36;99485.97;4425687;32;33374;-79
2022/04/21 04:02:37;;;;;;;19.92;12.30;;;;;;;6.40;53.73;99500.81;4411883;32;33964;-80
2022/04/21 04:05:10;;;;;;;18.52;11.48;;;;;;;6.45;52.10;99501.09;4412703;32;34370;-80
2022/04/21 04:13:14;;;;;;;19.92;11.80;;;;;;;6.16;52.77;99510.94;4443607;32;33806;-80
2022/04/21 04:15:53;;;;;;;20.17;11.05;;;;;;;6.41;52.39;99507.97;4427948;32;34566;-79
2022/04/21 04:18:23;;;;;;;22.15;12.50;;;;;;;6.54;51.93;99505.41;4429925;32;33845;-79
2022/04/21 04:20:58;;;;;;;19.87;11.88;;;;;;;6.55;51.96;99509.81;4441657;32;32922;-80
2022/04/21 04:23:28;;;;;;;21.67;12.20;;;;;;;6.59;51.85;99508.41;4428961;32;33907;-79
2022/04/21 04:26:03;;;;;;;17.77;11.20;;;;;;;6.62;51.66;99508.03;4429195;32;34565;-80
2022/04/21 04:28:36;;;;;;;18.37;11.45;;;;;;;6.71;51.54;99508.78;4441139;32;32334;-79
2022/04/21 04:31:08;;;;;;;17.98;11.38;;;;;;;6.60;51.96;99508.22;4441092;32;32781;-80
2022/04/21 04:33:39;;;;;;;19.67;12.43;;;;;;;6.74;51.75;99514.72;4426548;32;33557;-83
2022/04/21 04:36:10;;;;;;;17.50;11.02;;;;;;;6.76;51.80;99518.09;4440966;32;35865;-75
2022/04/21 04:38:41;;;;;;;19.75;12.68;;;;;;;6.95;57.63;99516.69;4441179;32;33807;-79
2022/04/21 04:44:03;;;;;;;22.33;12.15;;;;;;;8.13;57.33;99514.34;4443598;32;33635;-80
2022/04/21 04:46:35;;;;;;;17.40;12.63;;;;;;;8.00;51.14;99514.22;4428374;32;34515;-80
2022/04/21 04:49:04;;;;;;;20.88;13.27;;;;;;;8.11;50.12;99518.31;4441105;32;34311;-81
2022/04/21 04:51:33;;;;;;;18.37;12.80;;;;;;;8.10;49.97;99524.84;4440852;32;31718;-80
2022/04/21 04:54:05;;;;;;;22.48;12.70;;;;;;;8.19;49.79;99524.50;4439325;32;33656;-80
2022/04/21 04:56:36;;;;;;;20.77;12.45;;;;;;;8.09;49.92;99520.41;4428584;32;34272;-79
2022/04/21 04:59:07;;;;;;;19.73;13.35;;;;;;;8.25;49.73;99520.13;4428325;32;34597;-80
2022/04/21 05:01:41;;;;;;;23.52;14.63;;;;;;;8.09;50.39;99515.78;4426264;32;34352;-80
2022/04/21 05:04:17;;;;;;;23.20;13.65;;;;;;;8.09;50.41;99517.69;4454707;32;34272;-81
2022/04/21 05:06:54;;;;;;;19.52;12.70;;;;;;;8.13;50.56;99524.44;4440825;32;32723;-80
2022/04/21 05:09:30;;;;;;;22.25;13.15;;;;;;;8.47;50.01;99519.03;4437257;32;34142;-80
2022/04/21 05:11:58;;;;;;;20.92;13.65;;;;;;;8.68;50.06;99520.87;4424767;32;33164;-81
2022/04/21 05:14:35;;;;;;;24.40;14.60;;;;;;;8.91;50.03;99520.59;4424964;32;32409;-81
2022/04/21 05:17:09;;;;;;;22.55;14.07;;;;;;;9.00;50.44;99521.28;4425380;32;34702;-81
2022/04/21 05:19:39;;;;;;;22.98;14.82;;;;;;;9.16;50.21;99519.00;4437141;32;32982;-81
2022/04/21 05:22:12;;;;;;;23.17;13.55;;;;;;;9.38;49.98;99524.34;4412700;32;32741;-81
2022/04/21 05:24:48;;;;;;;24.20;13.82;;;;;;;9.65;49.20;99517.91;4424848;32;32121;-81
2022/04/21 05:27:20;;;;;;;20.92;14.15;;;;;;;9.76;48.40;99520.00;4437880;32;34806;-80
2022/04/21 05:32:36;;;;;;;25.08;16.77;;;;;;;10.18;47.24;99516.06;4427429;32;33311;-81
2022/04/21 05:35:07;;;;;;;27.02;16.67;;;;;;;10.28;47.91;99503.88;4412467;32;34382;-81
2022/04/21 05:37:38;;;;;;;25.88;16.62;;;;;;;10.30;48.37;99515.47;4437603;32;34384;-80
2022/04/21 05:40:20;;;;;;;27.62;17.67;;;;;;;10.25;47.31;99507.03;4412389;32;33817;-81
2022/04/21 05:42:55;;;;;;;27.45;16.95;;;;;;;10.45;46.57;99503.19;4438718;32;33291;-81
2022/04/21 05:45:39;;;;;;;35.55;18.27;;;;;;;10.65;46.88;99502.31;4435723;32;32067;-81
2022/04/21 05:48:21;;;;;;;23.02;14.85;;;;;;;10.79;47.39;99499.34;4412369;32;34420;-81
2022/04/21 05:50:53;;;;;;;18.87;12.20;;;;;;;10.72;48.33;99504.00;4437251;32;32609;-81
2022/04/21 05:53:24;;;;;;;21.50;13.32;;;;;;;10.95;47.06;99500.78;4425589;32;34267;-80
2022/04/21 05:55:56;;;;;;;22.08;12.43;;;;;;;11.24;46.25;99502.12;4425164;32;33585;-74
2022/04/21 05:58:30;;;;;;;20.65;12.43;;;;;;;11.37;45.35;99498.47;4412283;32;33983;-82
2022/04/21 06:01:06;;;;;;;23.27;13.25;;;;;;;12.05;48.82;99504.22;4437429;32;34529;-83
2022/04/21 06:03:46;;;;;;;18.92;12.50;;;;;;;12.22;45.67;99505.34;4425078;32;33212;-83
2022/04/21 06:06:22;;;;;;;19.92;13.02;;;;;;;12.47;43.57;99500.66;4412695;32;33696;-83
2022/04/21 06:08:54;;;;;;;19.98;12.68;;;;;;;12.51;44.30;99498.28;4412391;32;35239;-83
2022/04/21 06:11:28;;;;;;;22.27;12.30;;;;;;;12.62;44.01;99494.81;4412127;32;32478;-83
2022/04/21 06:13:58;;;;;;;17.02;11.98;;;;;;;12.84;43.20;99493.31;4437685;32;33001;-82
2022/04/21 06:16:32;;;;;;;19.20;13.27;;;;;;;12.75;44.68;99497.41;4413609;32;33673;-82
2022/04/21 06:19:05;;;;;;;16.62;12.35;;;;;;;13.10;44.23;99499.56;4440005;32;34313;-82
2022/04/21 06:21:47;;;;;;;22.08;12.52;;;;;;;13.43;42.39;99497.28;4413360;32;33720;-83
2022/04/21 06:24:23;;;;;;;19.80;12.27;;;;;;;13.52;40.43;99495.88;4413615;32;31894;-83
2022/04/21 06:26:56;;;;;;;17.17;12.05;;;;;;;13.90;39.81;99489.16;4426145;32;32319;-82
2022/04/21 06:29:38;;;;;;;29.95;20.92;;;;;;;13.99;40.43;99496.03;4438807;32;33485;-82
2022/04/21 06:32:15;;;;;;;15.50;10.48;;;;;;;14.32;41.45;99489.13;4413215;32;32167;-83
2022/04/21 06:34:52;;;;;;;13.35;9.00;;;;;;;14.60;38.70;99486.53;4438887;32;33385;-82
2022/04/21 06:37:31;;;;;;;13.80;9.50;;;;;;;15.09;36.53;99478.78;4401613;32;32304;-82
2022/04/21 06:40:10;;;;;;;15.60;9.55;;;;;;;15.51;36.04;99473.84;4400478;32;32894;-82
2022/04/21 06:42:46;;;;;;;16.83;10.82;;;;;;;15.86;34.97;99473.72;4413526;32;34678;-83
2022/04/21 06:48:07;;;;;;;17.98;12.05;;;;;;;16.60;36.51;99471.62;4415202;32;33281;-82
2022/04/21 06:50:39;;;;;;;11.98;8.75;;;;;;;16.66;33.82;99470.66;4413898;32;34241;-82
2022/04/21 06:53:13;;;;;;;12.40;7.72;;;;;;;16.72;32.63;99472.41;4413541;32;32441;-82
2022/04/21 06:55:49;;;;;;;12.68;7.70;;;;;;;17.20;34.13;99468.06;4426576;32;34164;-82
2022/04/21 06:58:22;;;;;;;11.75;5.50;;;;;;;17.50;33.12;99456.50;4413795;32;33118;-82
2022/04/21 07:01:01;;;;;;;9.95;5.25;;;;;;;17.51;30.25;99463.75;4414602;32;33729;-82
2022/04/21 07:03:36;;;;;;;6.85;4.78;;;;;;;17.66;29.84;99463.06;4416173;32;33517;-81
2022/04/21 07:06:07;;;;;;;8.57;4.93;;;;;;;17.82;30.18;99464.91;4435508;32;33578;-82
2022/04/21 07:08:44;;;;;;;18.85;12.77;;;;;;;18.02;32.03;99459.56;4421179;32;32985;-81
2022/04/21 07:11:12;;;;;;;9.95;5.82;;;;;;;18.17;30.24;99453.31;4443407;32;32906;-83
2022/04/21 07:13:43;;;;;;;9.73;5.60;;;;;;;18.29;29.57;99453.97;4431008;32;32577;-82
2022/04/21 07:16:17;;;;;;;6.62;3.95;;;;;;;18.59;30.46;99458.91;4431050;32;33331;-82
2022/04/21 07:18:48;;;;;;;8.70;3.80;;;;;;;18.84;28.83;99457.47;4427112;32;31899;-82
2022/04/21 07:21:26;;;;;;;8.63;5.00;;;;;;;18.83;28.10;99453.00;4425989;32;34627;-80
2022/04/21 07:24:00;;;;;;;7.47;4.55;;;;;;;18.78;27.49;99458.53;4426326;32;32433;-82
2022/04/21 07:26:30;;;;;;;6.65;3.50;;;;;;;18.52;26.83;99458.31;4425039;32;33191;-82
2022/04/21 07:29:03;;;;;;;7.95;4.30;;;;;;;18.56;28.23;99459.47;4425493;32;32158;-81
2022/04/21 07:31:33;;;;;;;6.65;3.87;;;;;;;18.65;27.97;99457.88;4425666;32;34627;-82
2022/04/21 07:34:07;;;;;;;6.95;3.67;;;;;;;18.85;27.48;99456.34;4425964;32;33666;-81
2022/04/21 07:36:42;;;;;;;6.78;3.50;;;;;;;18.90;27.56;99442.44;4424576;32;32917;-82
2022/04/21 07:39:16;;;;;;;9.30;3.30;;;;;;;19.13;27.57;99455.09;4412979;32;33913;-82
2022/04/21 07:41:44;;;;;;;8.07;4.00;;;;;;;19.19;26.64;99454.84;4413389;32;33086;-82
2022/04/21 07:44:12;;;;;;;7.95;4.80;;;;;;;18.99;25.74;99451.97;4413577;32;33941;-82
2022/04/21 07:46:50;;;;;;;6.95;3.92;;;;;;;18.96;26.95;99445.00;4426107;32;34025;-82
2022/04/21 07:55:28;;;;;;;7.13;4.07;;;;;;;19.12;27.17;99448.69;4428121;32;33813;-83
2022/04/21 07:58:03;;;;;;;9.52;4.45;;;;;;;18.90;26.40;99459.97;4425554;32;33453;-82
2022/04/21 08:00:40;;;;;;;10.60;5.32;;;;;;;19.00;27.20;99454.47;4413274;32;34375;-83
2022/04/21 08:03:19;;;;;;;6.25;4.68;;;;;;;18.94;26.30;99443.59;4425397;32;32875;-82
2022/04/21 08:05:53;;;;;;;5.82;3.80;;;;;;;19.19;27.35;99451.22;4413598;32;32930;-83
2022/04/21 08:08:28;;;;;;;7.22;4.05;;;;;;;19.40;25.94;99455.78;4426209;32;33914;-82
2022/04/21 08:11:04;;;;;;;10.57;5.85;;;;;;;19.57;25.59;99450.00;4425913;32;34350;-82
2022/04/21 08:13:42;;;;;;;6.55;4.70;;;;;;;19.63;26.05;99443.34;4413897;32;34512;-82
2022/04/21 08:16:15;;;;;;;7.45;5.20;;;;;;;19.83;25.04;99448.97;4425227;32;33809;-81
2022/04/21 08:18:45;;;;;;;8.45;4.45;;;;;;;19.97;24.84;99455.66;4423614;32;32986;-78
2022/04/21 08:21:19;;;;;;;6.68;3.78;;;;;;;20.03;25.49;99454.56;4417228;32;32374;-78
2022/04/21 08:33:24;;;;;;;9.20;5.10;;;;;;;19.65;24.92;99452.25;4356998;32;34405;-82
2022/04/21 08:35:58;;;;;;;6.35;3.85;;;;;;;20.05;26.13;99449.56;4404109;32;35199;-81
2022/04/21 08:38:33;;;;;;;;;;;;;;;19.75;25.81;99446.72;4422328;32;33958;-81
2022/04/21 08:41:07;;;;;;;7.37;4.20;;;;;;;20.08;25.08;99450.13;4430730;32;33382;-82
2022/04/21 08:43:37;;;;;;;9.00;4.28;;;;;;;20.04;26.27;99447.03;4426463;32;32165;-82
2022/04/21 08:46:09;;;;;;;11.98;4.15;;;;;;;20.18;25.02;99450.09;4428192;32;34942;-82
2022/04/21 08:48:50;;;;;;;9.20;4.22;;;;;;;20.44;24.47;99450.97;4411320;32;33660;-82
2022/04/21 08:51:27;;;;;;;8.88;3.47;;;;;;;20.54;25.69;99446.22;4411171;32;33143;-82
2022/04/21 08:54:05;;;;;;;17.92;6.30;;;;;;;20.59;24.67;99448.19;4411819;32;32656;-82
2022/04/21 08:56:35;;;;;;;9.18;3.80;;;;;;;20.88;24.47;99460.37;4397658;32;32888;-82
2022/04/21 08:59:06;;;;;;;7.28;4.03;;;;;;;21.05;23.60;99455.31;4415844;32;34072;-81
2022/04/21 09:01:39;;;;;;;8.10;5.03;;;;;;;20.99;23.63;99459.25;4419215;32;33976;-82
2022/04/21 09:04:23;;;;;;;7.03;5.12;;;;;;;21.19;22.58;99449.97;4429359;32;33685;-81
2022/04/21 09:06:57;;;;;;;7.62;4.90;;;;;;;21.37;23.19;99459.72;4410486;32;34081;-81
2022/04/21 09:09:25;;;;;;;6.85;4.70;;;;;;;21.40;23.29;99450.78;4396575;32;32342;-81
2022/04/21 09:11:59;;;;;;;7.07;4.22;;;;;;;21.73;23.50;99456.72;4409158;32;33936;-81
2022/04/21 09:14:33;;;;;;;6.65;4.40;;;;;;;21.92;22.92;99446.56;4398205;32;34489;-78
2022/04/21 09:17:07;;;;;;;;;;;;;;;21.96;23.14;99447.66;4409717;32;32921;-80
2022/04/21 09:19:56;;;;;;;7.60;4.25;;;;;;;22.23;22.44;99462.00;4429523;32;32581;-80
2022/04/21 09:22:33;;;;;;;7.30;4.82;;;;;;;22.11;22.93;99460.69;4410729;32;32949;-80
2022/04/21 09:25:01;;;;;;;10.10;5.12;;;;;;;22.45;22.97;99455.97;4418757;32;33799;-80
2022/04/21 09:27:44;;;;;;;8.27;4.75;;;;;;;22.51;22.23;99452.00;4410124;32;34288;-82
2022/04/21 09:30:16;;;;;;;6.25;4.20;;;;;;;22.56;21.93;99451.94;4417852;32;34137;-82
2022/04/21 09:33:01;;;;;;;6.65;4.25;;;;;;;22.82;21.44;99446.94;4424098;32;32859;-81
2022/04/21 09:35:37;;;;;;;6.95;4.30;;;;;;;23.00;21.20;99445.37;4448571;32;33991;-81
2022/04/21 09:38:10;;;;;;;8.32;4.78;;;;;;;22.99;21.39;99446.50;4427791;32;33704;-82
2022/04/21 09:40:47;;;;;;;7.18;5.12;;;;;;;22.82;22.23;99452.53;4428572;32;34493;-81
2022/04/21 09:43:37;;;;;;;7.43;4.47;;;;;;;23.05;21.94;99456.50;4428038;32;32400;-81
2022/04/21 09:46:22;;;;;;;7.10;4.75;;;;;;;23.50;21.53;99452.31;4452980;32;32961;-82
2022/04/21 09:48:57;;;;;;;9.50;4.95;;;;;;;23.28;20.47;99438.88;4427372;32;32795;-82
2022/04/21 09:51:33;;;;;;;6.47;4.10;;;;;;;24.02;20.86;99444.06;4437429;32;34333;-82
2022/04/21 09:54:04;;;;;;;7.05;3.95;;;;;;;23.94;20.26;99440.81;4412601;32;33074;-82
2022/04/21 09:56:36;;;;;;;6.55;4.03;;;;;;;23.98;19.49;99441.03;4412351;32;33233;-81
2022/04/21 09:59:18;;;;;;;6.70;3.90;;;;;;;24.00;18.93;99435.13;4424552;32;34432;-82
2022/04/21 10:01:50;;;;;;;7.05;3.65;;;;;;;24.24;19.36;99433.03;4412357;32;33182;-83
2022/04/21 10:04:48;;;;;;;6.50;4.10;;;;;;;24.17;19.41;99426.97;4405609;32;31721;-82
2022/04/21 10:07:20;;;;;;;8.95;4.37;;;;;;;24.22;19.28;99424.94;4418207;32;34409;-81
2022/04/21 10:09:52;;;;;;;9.18;4.78;;;;;;;23.78;19.39;99413.31;4424456;32;35387;-82
2022/04/21 10:12:22;;;;;;;6.55;4.22;;;;;;;23.65;19.69;99421.31;4411146;32;34779;-82
2022/04/21 10:14:56;;;;;;;8.70;5.78;;;;;;;24.07;19.55;99418.72;4423881;32;33332;-82
2022/04/21 10:17:40;;;;;;;6.57;4.00;;;;;;;23.66;18.45;99427.75;4411581;32;33716;-82
2022/04/21 10:20:09;;;;;;;7.05;4.30;;;;;;;24.07;18.44;99419.56;4408840;32;35170;-82
2022/04/21 10:22:40;;;;;;;7.12;4.20;;;;;;;24.37;18.78;99412.66;4427853;32;35381;-81
2022/04/21 10:25:12;;;;;;;8.02;4.43;;;;;;;24.54;19.32;99415.72;4422154;32;33237;-79
2022/04/21 10:27:46;;;;;;;6.75;3.97;;;;;;;24.78;20.39;99409.94;4417299;32;34010;-77
2022/04/21 10:30:22;;;;;;;7.60;4.20;;;;;;;24.92;18.90;99415.56;4437256;32;35354;-77
2022/04/21 10:33:06;;;;;;;7.85;4.28;;;;;;;25.12;18.22;99415.19;4412095;32;33896;-77
2022/04/21 10:35:49;;;;;;;9.95;4.18;;;;;;;24.43;18.47;99414.22;4424432;32;31727;-77
2022/04/21 10:38:20;;;;;;;7.22;5.07;;;;;;;24.90;17.55;99409.44;4411900;32;33678;-77
2022/04/21 10:41:10;;;;;;;25.05;18.77;;;;;;;24.76;18.57;99400.97;4424535;32;34348;-77
2022/04/21 10:43:50;;;;;;;7.70;5.45;;;;;;;24.18;18.63;99407.03;4411699;32;32552;-76
2022/04/21 10:46:33;;;;;;;9.93;4.78;;;;;;;23.53;19.16;99394.84;4437461;32;33487;-76
2022/04/21 10:49:53;;;;;;;7.12;4.60;;;;;;;23.65;19.83;99393.31;4435976;32;32323;-76
2022/04/21 10:58:17;;;;;;;6.87;4.70;;;;;;;23.86;19.51;99393.84;4414546;32;32377;-81
2022/04/21 11:01:07;;;;;;;7.35;4.30;;;;;;;24.34;18.82;99378.78;4408525;32;34254;-79
2022/04/21 11:03:41;;;;;;;6.72;4.82;;;;;;;24.46;19.72;99390.34;4397016;32;35435;-80
2022/04/21 11:06:09;;;;;;;8.30;5.28;;;;;;;24.40;19.42;99380.34;4401586;32;34604;-80
2022/04/21 11:08:37;;;;;;;9.00;5.45;;;;;;;24.56;19.69;99370.53;4408728;32;33066;-81
2022/04/21 11:11:07;;;;;;;7.28;5.28;;;;;;;24.68;19.60;99372.81;4383273;32;33858;-80
2022/04/21 11:13:51;;;;;;;7.03;4.65;;;;;;;24.08;19.12;99378.34;4385980;32;34552;-80
2022/04/21 11:16:41;;;;;;;7.53;4.22;;;;;;;24.26;19.83;99380.31;4395971;32;34513;-80
2022/04/21 11:19:30;;;;;;;6.80;5.18;;;;;;;24.28;19.61;99378.03;4383233;32;31804;-80
2022/04/21 11:22:05;;;;;;;7.15;4.93;;;;;;;24.09;19.27;99372.41;4383019;32;32688;-81
2022/04/21 11:24:55;;;;;;;8.05;4.53;;;;;;;24.13;19.29;99375.44;4395436;32;35378;-76
2022/04/21 11:27:26;;;;;;;6.85;4.43;;;;;;;24.17;19.88;99368.09;4395555;32;34845;-78
2022/04/21 11:30:26;;;;;;;7.07;4.28;;;;;;;24.14;19.60;99371.50;4408972;32;33280;-77
2022/04/21 11:32:56;;;;;;;6.70;4.57;;;;;;;24.09;19.81;99363.19;4396180;32;33547;-77
2022/04/21 11:35:30;;;;;;;8.20;4.70;;;;;;;23.69;19.57;99359.06;4409820;32;34371;-78
2022/04/21 11:38:02;;;;;;;7.57;4.15;;;;;;;23.59;20.34;99355.28;4399438;32;34077;-78
2022/04/21 11:40:44;;;;;;;7.25;4.53;;;;;;;23.63;20.27;99355.50;4411269;32;31837;-78
2022/04/21 11:43:19;;;;;;;7.20;5.00;;;;;;;24.15;20.29;99357.19;4409851;32;32332;-77
2022/04/21 11:45:55;;;;;;;7.68;5.10;;;;;;;24.59;19.61;99347.44;4397567;32;35295;-78
2022/04/21 11:48:36;;;;;;;7.82;4.62;;;;;;;24.85;18.52;99348.59;4384470;32;32243;-78
2022/04/21 11:51:11;;;;;;;7.87;4.05;;;;;;;24.54;18.75;99344.75;4408621;32;33429;-78
2022/04/21 11:53:41;;;;;;;8.02;4.07;;;;;;;24.56;18.52;99348.06;4410172;32;33883;-78
2022/04/21 11:56:10;;;;;;;8.15;4.75;;;;;;;24.95;18.52;99336.34;4402001;32;34532;-78
2022/04/21 11:58:44;;;;;;;6.90;4.03;;;;;;;25.10;18.92;99341.66;4407348;32;33717;-78
2022/04/21 12:07:03;;;;;;;6.05;4.22;;;;;;;24.99;17.60;99337.41;4422149;32;34344;-77
2022/04/21 12:09:43;;;;;;;5.93;4.37;;;;;;;25.11;18.01;99346.13;4417009;32;33910;-78
2022/04/21 12:12:15;;;;;;;8.35;3.85;;;;;;;25.06;17.60;99331.37;4411932;32;33645;-77
2022/04/21 12:14:46;;;;;;;8.80;4.40;;;;;;;25.43;17.45;99324.63;4430341;32;32170;-77
2022/04/21 12:17:20;;;;;;;7.15;4.78;;;;;;;24.75;17.44;99329.16;4433296;32;34335;-77
2022/04/21 12:19:52;;;;;;;8.43;4.60;;;;;;;24.39;18.35;99329.03;4426057;32;33988;-77
2022/04/21 12:22:29;;;;;;;6.40;4.60;;;;;;;24.40;17.91;99308.25;4438180;32;33089;-77
2022/04/21 12:25:10;;;;;;;7.53;4.18;;;;;;;24.76;18.64;99315.94;4426026;32;33589;-77
2022/04/21 12:27:42;;;;;;;8.20;4.20;;;;;;;24.80;19.37;99305.75;4412841;32;32829;-78
2022/04/21 12:30:15;;;;;;;;;;;;;;;24.94;19.58;99312.22;4439778;32;33939;-77
2022/04/21 12:32:50;;;;;;;5.93;4.00;;;;;;;24.97;19.15;99313.59;4439637;32;31998;-77
2022/04/21 12:35:43;;;;;;;6.35;4.22;;;;;;;24.99;18.54;99317.75;4425777;32;33615;-77
2022/04/21 12:40:59;;;;;;;9.95;4.53;;;;;;;24.27;18.56;99309.88;4414519;32;32983;-77
2022/04/21 12:43:34;;;;;;;8.07;4.12;;;;;;;24.82;18.88;99309.09;4438273;32;33038;-77
2022/04/21 12:46:04;;;;;;;7.60;4.00;;;;;;;24.96;19.09;99312.75;4425680;32;34095;-77
2022/04/21 12:48:32;;;;;;;9.32;5.12;;;;;;;24.96;19.16;99315.56;4412285;32;34880;-78
2022/04/21 12:51:03;;;;;;;6.55;3.90;;;;;;;24.44;18.49;99311.25;4430497;32;34896;-77
2022/04/21 12:53:33;;;;;;;8.45;4.07;;;;;;;23.53;19.24;99316.41;4439270;32;32657;-77
2022/04/21 12:56:10;;;;;;;9.88;4.57;;;;;;;23.43;19.71;99316.56;4415129;32;34574;-77
2022/04/21 12:58:55;;;;;;;9.05;4.95;;;;;;;23.50;19.98;99317.84;4423689;32;34553;-77
2022/04/21 13:01:28;;;;;;;91.10;11.88;;;;;;;23.71;19.33;99307.19;4421442;32;35184;-76
2022/04/21 13:04:03;;;;;;;10.27;4.80;;;;;;;23.82;19.79;99314.31;4323150;32;3257666;-77
2022/04/21 13:06:36;;;;;;;16.85;5.55;;;;;;;23.70;20.13;99313.94;4437910;32;32337;-77
2022/04/21 13:09:08;;;;;;;7.70;4.10;;;;;;;23.72;19.50;99320.06;4426332;32;34562;-77
2022/04/21 13:11:43;;;;;;;8.00;4.30;;;;;;;23.52;20.22;99312.78;4425905;32;34431;-77
2022/04/21 13:14:23;;;;;;;12.07;4.43;;;;;;;22.59;20.50;99311.50;4425943;32;33338;-78